sensor_id;sensor_type;location;lat;lon;timestamp;P1;durP1;ratioP1;P2;durP2;ratioP2
43042;SDS011;28667;50.758;6.096;2023-04-24T00:01:29;2.05;;;1.02;;
43042;SDS011;28667;50.758;6.096;2023-04-24T00:03:56;1.25;;;0.70;;
43042;SDS011;28667;50.758;6.096;2023-04-24T00:06:25;0.98;;;0.70;;
43042;SDS011;28667;50.758;6.096;2023-04-24T00:08:58;1.10;;;0.82;;
43042;SDS011;28667;50.758;6.096;2023-04-24T00:11:25;0.70;;;0.70;;
43042;SDS011;28667;50.758;6.096;2023-04-24T00:13:52;2.17;;;1.10;;
43042;SDS011;28667;50.758;6.096;2023-04-24T00:16:17;1.35;;;0.90;;
43042;SDS011;28667;50.758;6.096;2023-04-24T00:18:43;0.77;;;0.77;;
43042;SDS011;28667;50.758;6.096;2023-04-24T00:21:10;2.00;;;1.27;;
43042;SDS011;28667;50.758;6.096;2023-04-24T00:23:36;2.00;;;1.13;;
43042;SDS011;28667;50.758;6.096;2023-04-24T00:26:02;2.78;;;1.58;;
43042;SDS011;28667;50.758;6.096;2023-04-24T00:28:28;1.67;;;1.35;;
43042;SDS011;28667;50.758;6.096;2023-04-24T00:30:55;2.78;;;1.92;;
43042;SDS011;28667;50.758;6.096;2023-04-24T00:33:21;2.53;;;1.98;;
43042;SDS011;28667;50.758;6.096;2023-04-24T00:35:47;2.75;;;2.03;;
43042;SDS011;28667;50.758;6.096;2023-04-24T00:38:12;4.32;;;2.05;;
43042;SDS011;28667;50.758;6.096;2023-04-24T00:40:38;5.75;;;1.90;;
43042;SDS011;28667;50.758;6.096;2023-04-24T00:43:04;4.80;;;2.10;;
43042;SDS011;28667;50.758;6.096;2023-04-24T00:45:30;3.80;;;1.65;;
43042;SDS011;28667;50.758;6.096;2023-04-24T00:47:56;3.85;;;2.20;;
43042;SDS011;28667;50.758;6.096;2023-04-24T00:50:23;3.85;;;1.85;;
43042;SDS011;28667;50.758;6.096;2023-04-24T00:52:50;3.75;;;2.40;;
43042;SDS011;28667;50.758;6.096;2023-04-24T00:55:16;2.58;;;2.10;;
43042;SDS011;28667;50.758;6.096;2023-04-24T00:57:42;3.30;;;2.45;;
43042;SDS011;28667;50.758;6.096;2023-04-24T01:00:09;6.35;;;2.92;;
43042;SDS011;28667;50.758;6.096;2023-04-24T01:02:37;3.15;;;2.53;;
43042;SDS011;28667;50.758;6.096;2023-04-24T01:05:10;5.53;;;2.63;;
43042;SDS011;28667;50.758;6.096;2023-04-24T01:07:39;4.07;;;2.20;;
43042;SDS011;28667;50.758;6.096;2023-04-24T01:10:10;5.70;;;3.33;;
43042;SDS011;28667;50.758;6.096;2023-04-24T01:12:38;5.68;;;3.00;;
43042;SDS011;28667;50.758;6.096;2023-04-24T01:15:04;4.15;;;2.88;;
43042;SDS011;28667;50.758;6.096;2023-04-24T01:17:31;4.70;;;2.92;;
43042;SDS011;28667;50.758;6.096;2023-04-24T01:19:58;9.55;;;3.25;;
43042;SDS011;28667;50.758;6.096;2023-04-24T01:22:25;2.95;;;2.33;;
43042;SDS011;28667;50.758;6.096;2023-04-24T01:24:51;7.13;;;2.78;;
43042;SDS011;28667;50.758;6.096;2023-04-24T01:27:18;4.30;;;3.03;;
43042;SDS011;28667;50.758;6.096;2023-04-24T01:29:45;5.80;;;3.10;;
43042;SDS011;28667;50.758;6.096;2023-04-24T01:32:12;5.30;;;3.00;;
43042;SDS011;28667;50.758;6.096;2023-04-24T01:34:39;4.40;;;3.05;;
43042;SDS011;28667;50.758;6.096;2023-04-24T01:37:05;3.97;;;2.60;;
43042;SDS011;28667;50.758;6.096;2023-04-24T01:39:31;7.05;;;3.40;;
43042;SDS011;28667;50.758;6.096;2023-04-24T01:41:58;5.05;;;3.10;;
43042;SDS011;28667;50.758;6.096;2023-04-24T01:44:25;6.53;;;3.15;;
43042;SDS011;28667;50.758;6.096;2023-04-24T01:46:51;4.70;;;2.90;;
43042;SDS011;28667;50.758;6.096;2023-04-24T01:49:19;3.67;;;2.30;;
43042;SDS011;28667;50.758;6.096;2023-04-24T01:51:45;4.53;;;2.72;;
43042;SDS011;28667;50.758;6.096;2023-04-24T01:54:11;4.82;;;2.65;;
43042;SDS011;28667;50.758;6.096;2023-04-24T01:56:37;5.07;;;2.60;;
43042;SDS011;28667;50.758;6.096;2023-04-24T01:59:07;4.53;;;2.67;;
43042;SDS011;28667;50.758;6.096;2023-04-24T02:01:34;5.65;;;3.20;;
43042;SDS011;28667;50.758;6.096;2023-04-24T02:04:04;6.03;;;3.22;;
43042;SDS011;28667;50.758;6.096;2023-04-24T02:06:30;8.32;;;2.80;;
43042;SDS011;28667;50.758;6.096;2023-04-24T02:08:58;4.57;;;3.10;;
43042;SDS011;28667;50.758;6.096;2023-04-24T02:11:25;6.50;;;3.40;;
43042;SDS011;28667;50.758;6.096;2023-04-24T02:13:51;5.00;;;3.60;;
43042;SDS011;28667;50.758;6.096;2023-04-24T02:16:17;6.65;;;3.28;;
43042;SDS011;28667;50.758;6.096;2023-04-24T02:18:43;3.97;;;3.20;;
43042;SDS011;28667;50.758;6.096;2023-04-24T02:21:09;6.63;;;3.10;;
43042;SDS011;28667;50.758;6.096;2023-04-24T02:23:35;11.73;;;3.75;;
43042;SDS011;28667;50.758;6.096;2023-04-24T02:26:01;4.03;;;3.08;;
43042;SDS011;28667;50.758;6.096;2023-04-24T02:28:27;8.63;;;3.35;;
43042;SDS011;28667;50.758;6.096;2023-04-24T02:30:53;7.00;;;3.22;;
43042;SDS011;28667;50.758;6.096;2023-04-24T02:33:21;5.40;;;3.50;;
43042;SDS011;28667;50.758;6.096;2023-04-24T02:35:47;4.50;;;3.00;;
43042;SDS011;28667;50.758;6.096;2023-04-24T02:38:12;9.07;;;3.78;;
43042;SDS011;28667;50.758;6.096;2023-04-24T02:40:38;8.40;;;3.78;;
43042;SDS011;28667;50.758;6.096;2023-04-24T02:43:04;6.50;;;3.47;;
43042;SDS011;28667;50.758;6.096;2023-04-24T02:45:30;7.93;;;4.32;;
43042;SDS011;28667;50.758;6.096;2023-04-24T02:47:55;3.85;;;2.88;;
43042;SDS011;28667;50.758;6.096;2023-04-24T02:50:21;9.48;;;4.07;;
43042;SDS011;28667;50.758;6.096;2023-04-24T02:52:47;6.45;;;3.38;;
43042;SDS011;28667;50.758;6.096;2023-04-24T02:55:13;8.18;;;3.75;;
43042;SDS011;28667;50.758;6.096;2023-04-24T02:57:38;4.65;;;3.30;;
43042;SDS011;28667;50.758;6.096;2023-04-24T03:00:04;4.82;;;3.65;;
43042;SDS011;28667;50.758;6.096;2023-04-24T03:02:32;6.68;;;3.40;;
43042;SDS011;28667;50.758;6.096;2023-04-24T03:04:58;8.40;;;3.30;;
43042;SDS011;28667;50.758;6.096;2023-04-24T03:07:24;7.60;;;3.50;;
43042;SDS011;28667;50.758;6.096;2023-04-24T03:09:50;7.40;;;2.95;;
43042;SDS011;28667;50.758;6.096;2023-04-24T03:12:16;8.77;;;3.40;;
43042;SDS011;28667;50.758;6.096;2023-04-24T03:14:43;5.38;;;3.10;;
43042;SDS011;28667;50.758;6.096;2023-04-24T03:17:09;6.07;;;3.13;;
43042;SDS011;28667;50.758;6.096;2023-04-24T03:19:34;4.30;;;3.42;;
43042;SDS011;28667;50.758;6.096;2023-04-24T03:22:07;8.27;;;3.28;;
43042;SDS011;28667;50.758;6.096;2023-04-24T03:24:35;6.75;;;3.63;;
43042;SDS011;28667;50.758;6.096;2023-04-24T03:27:00;7.45;;;3.25;;
43042;SDS011;28667;50.758;6.096;2023-04-24T03:29:45;7.60;;;3.67;;
43042;SDS011;28667;50.758;6.096;2023-04-24T03:32:12;5.40;;;3.40;;
43042;SDS011;28667;50.758;6.096;2023-04-24T03:34:38;7.80;;;3.53;;
43042;SDS011;28667;50.758;6.096;2023-04-24T03:37:06;5.47;;;3.65;;
43042;SDS011;28667;50.758;6.096;2023-04-24T03:39:33;7.47;;;3.17;;
43042;SDS011;28667;50.758;6.096;2023-04-24T03:41:59;7.05;;;3.30;;
43042;SDS011;28667;50.758;6.096;2023-04-24T03:44:36;6.32;;;3.10;;
43042;SDS011;28667;50.758;6.096;2023-04-24T03:47:01;5.55;;;3.53;;
43042;SDS011;28667;50.758;6.096;2023-04-24T03:49:28;6.30;;;3.40;;
43042;SDS011;28667;50.758;6.096;2023-04-24T03:51:54;9.38;;;3.75;;
43042;SDS011;28667;50.758;6.096;2023-04-24T03:54:22;7.18;;;3.58;;
43042;SDS011;28667;50.758;6.096;2023-04-24T03:56:49;5.60;;;3.75;;
43042;SDS011;28667;50.758;6.096;2023-04-24T03:59:15;4.72;;;3.28;;
43042;SDS011;28667;50.758;6.096;2023-04-24T04:01:45;5.40;;;3.60;;
43042;SDS011;28667;50.758;6.096;2023-04-24T04:04:14;5.72;;;3.40;;
43042;SDS011;28667;50.758;6.096;2023-04-24T04:06:40;6.38;;;3.28;;
43042;SDS011;28667;50.758;6.096;2023-04-24T04:09:07;10.73;;;4.15;;
43042;SDS011;28667;50.758;6.096;2023-04-24T04:11:34;5.43;;;3.78;;
43042;SDS011;28667;50.758;6.096;2023-04-24T04:14:01;9.05;;;4.25;;
43042;SDS011;28667;50.758;6.096;2023-04-24T04:16:27;5.13;;;3.50;;
43042;SDS011;28667;50.758;6.096;2023-04-24T04:18:59;6.00;;;3.53;;
43042;SDS011;28667;50.758;6.096;2023-04-24T04:21:25;4.25;;;3.30;;
43042;SDS011;28667;50.758;6.096;2023-04-24T04:23:57;5.78;;;3.67;;
43042;SDS011;28667;50.758;6.096;2023-04-24T04:26:32;6.35;;;3.53;;
43042;SDS011;28667;50.758;6.096;2023-04-24T04:29:03;4.47;;;4.00;;
43042;SDS011;28667;50.758;6.096;2023-04-24T04:31:31;5.80;;;3.85;;
43042;SDS011;28667;50.758;6.096;2023-04-24T04:34:00;5.95;;;3.75;;
43042;SDS011;28667;50.758;6.096;2023-04-24T04:36:27;5.00;;;3.60;;
43042;SDS011;28667;50.758;6.096;2023-04-24T04:39:00;6.57;;;3.63;;
43042;SDS011;28667;50.758;6.096;2023-04-24T04:41:47;8.20;;;3.63;;
43042;SDS011;28667;50.758;6.096;2023-04-24T04:44:14;5.03;;;3.28;;
43042;SDS011;28667;50.758;6.096;2023-04-24T04:46:41;9.48;;;3.88;;
43042;SDS011;28667;50.758;6.096;2023-04-24T04:49:15;5.22;;;3.30;;
43042;SDS011;28667;50.758;6.096;2023-04-24T04:51:42;4.95;;;3.58;;
43042;SDS011;28667;50.758;6.096;2023-04-24T04:54:08;4.90;;;3.42;;
43042;SDS011;28667;50.758;6.096;2023-04-24T04:56:34;8.90;;;3.83;;
43042;SDS011;28667;50.758;6.096;2023-04-24T04:59:01;6.78;;;4.07;;
43042;SDS011;28667;50.758;6.096;2023-04-24T05:01:27;6.90;;;3.42;;
43042;SDS011;28667;50.758;6.096;2023-04-24T05:03:54;6.00;;;2.90;;
43042;SDS011;28667;50.758;6.096;2023-04-24T05:06:20;3.80;;;3.08;;
43042;SDS011;28667;50.758;6.096;2023-04-24T05:08:46;5.68;;;3.40;;
43042;SDS011;28667;50.758;6.096;2023-04-24T05:11:25;8.50;;;3.70;;
43042;SDS011;28667;50.758;6.096;2023-04-24T05:13:51;3.30;;;2.67;;
43042;SDS011;28667;50.758;6.096;2023-04-24T05:16:22;5.68;;;2.80;;
43042;SDS011;28667;50.758;6.096;2023-04-24T05:18:51;3.38;;;2.13;;
43042;SDS011;28667;50.758;6.096;2023-04-24T05:21:21;4.03;;;2.60;;
43042;SDS011;28667;50.758;6.096;2023-04-24T05:23:50;3.42;;;2.60;;
43042;SDS011;28667;50.758;6.096;2023-04-24T05:26:23;5.38;;;2.67;;
43042;SDS011;28667;50.758;6.096;2023-04-24T05:28:49;4.03;;;2.45;;
43042;SDS011;28667;50.758;6.096;2023-04-24T05:31:15;5.78;;;2.85;;
43042;SDS011;28667;50.758;6.096;2023-04-24T05:33:43;3.35;;;2.83;;
43042;SDS011;28667;50.758;6.096;2023-04-24T05:36:09;3.42;;;2.30;;
43042;SDS011;28667;50.758;6.096;2023-04-24T05:38:35;4.82;;;2.55;;
43042;SDS011;28667;50.758;6.096;2023-04-24T05:41:01;3.38;;;2.35;;
43042;SDS011;28667;50.758;6.096;2023-04-24T05:43:26;4.38;;;2.70;;
43042;SDS011;28667;50.758;6.096;2023-04-24T05:45:52;3.67;;;2.55;;
43042;SDS011;28667;50.758;6.096;2023-04-24T05:48:18;4.13;;;3.00;;
43042;SDS011;28667;50.758;6.096;2023-04-24T05:50:44;3.72;;;2.30;;
43042;SDS011;28667;50.758;6.096;2023-04-24T05:53:12;6.30;;;3.08;;
43042;SDS011;28667;50.758;6.096;2023-04-24T05:55:38;2.97;;;2.25;;
43042;SDS011;28667;50.758;6.096;2023-04-24T05:58:04;2.95;;;2.53;;
43042;SDS011;28667;50.758;6.096;2023-04-24T06:00:32;3.70;;;2.65;;
43042;SDS011;28667;50.758;6.096;2023-04-24T06:03:04;2.90;;;2.20;;
43042;SDS011;28667;50.758;6.096;2023-04-24T06:05:30;2.92;;;2.05;;
43042;SDS011;28667;50.758;6.096;2023-04-24T06:07:55;4.15;;;2.95;;
43042;SDS011;28667;50.758;6.096;2023-04-24T06:10:24;6.35;;;2.42;;
43042;SDS011;28667;50.758;6.096;2023-04-24T06:12:51;2.85;;;2.35;;
43042;SDS011;28667;50.758;6.096;2023-04-24T06:15:18;3.97;;;2.38;;
43042;SDS011;28667;50.758;6.096;2023-04-24T06:18:10;3.80;;;2.38;;
43042;SDS011;28667;50.758;6.096;2023-04-24T06:20:38;3.53;;;2.30;;
43042;SDS011;28667;50.758;6.096;2023-04-24T06:23:07;2.40;;;1.95;;
43042;SDS011;28667;50.758;6.096;2023-04-24T06:25:33;3.58;;;2.20;;
43042;SDS011;28667;50.758;6.096;2023-04-24T06:27:59;2.40;;;2.13;;
43042;SDS011;28667;50.758;6.096;2023-04-24T06:30:25;2.30;;;2.03;;
43042;SDS011;28667;50.758;6.096;2023-04-24T06:32:52;3.45;;;1.80;;
43042;SDS011;28667;50.758;6.096;2023-04-24T06:35:18;2.25;;;1.42;;
43042;SDS011;28667;50.758;6.096;2023-04-24T06:37:44;1.98;;;1.50;;
43042;SDS011;28667;50.758;6.096;2023-04-24T06:40:10;1.42;;;1.23;;
43042;SDS011;28667;50.758;6.096;2023-04-24T06:42:36;1.90;;;1.70;;
43042;SDS011;28667;50.758;6.096;2023-04-24T06:45:03;2.50;;;1.88;;
43042;SDS011;28667;50.758;6.096;2023-04-24T06:47:29;2.35;;;1.73;;
43042;SDS011;28667;50.758;6.096;2023-04-24T06:49:55;2.00;;;1.20;;
43042;SDS011;28667;50.758;6.096;2023-04-24T06:52:20;2.00;;;1.90;;
43042;SDS011;28667;50.758;6.096;2023-04-24T06:54:46;1.95;;;1.48;;
43042;SDS011;28667;50.758;6.096;2023-04-24T06:57:12;2.05;;;1.48;;
43042;SDS011;28667;50.758;6.096;2023-04-24T06:59:38;1.25;;;1.05;;
43042;SDS011;28667;50.758;6.096;2023-04-24T07:02:04;1.70;;;1.10;;
43042;SDS011;28667;50.758;6.096;2023-04-24T07:04:30;1.27;;;1.08;;
43042;SDS011;28667;50.758;6.096;2023-04-24T07:06:56;1.40;;;1.30;;
43042;SDS011;28667;50.758;6.096;2023-04-24T07:09:23;3.40;;;1.30;;
43042;SDS011;28667;50.758;6.096;2023-04-24T07:11:50;1.90;;;1.23;;
43042;SDS011;28667;50.758;6.096;2023-04-24T07:14:17;1.63;;;1.27;;
43042;SDS011;28667;50.758;6.096;2023-04-24T07:16:42;2.22;;;1.75;;
43042;SDS011;28667;50.758;6.096;2023-04-24T07:19:09;1.35;;;1.25;;
43042;SDS011;28667;50.758;6.096;2023-04-24T07:21:34;2.05;;;1.42;;
43042;SDS011;28667;50.758;6.096;2023-04-24T07:24:00;2.03;;;1.70;;
43042;SDS011;28667;50.758;6.096;2023-04-24T07:26:28;1.50;;;1.40;;
43042;SDS011;28667;50.758;6.096;2023-04-24T07:28:55;4.15;;;2.38;;
43042;SDS011;28667;50.758;6.096;2023-04-24T07:31:21;2.63;;;1.80;;
43042;SDS011;28667;50.758;6.096;2023-04-24T07:33:47;2.55;;;1.67;;
43042;SDS011;28667;50.758;6.096;2023-04-24T07:36:13;4.22;;;2.00;;
43042;SDS011;28667;50.758;6.096;2023-04-24T07:38:44;1.98;;;1.77;;
43042;SDS011;28667;50.758;6.096;2023-04-24T07:41:10;4.13;;;1.88;;
43042;SDS011;28667;50.758;6.096;2023-04-24T07:43:36;6.25;;;2.00;;
43042;SDS011;28667;50.758;6.096;2023-04-24T07:46:01;3.35;;;2.42;;
43042;SDS011;28667;50.758;6.096;2023-04-24T07:48:27;3.15;;;2.17;;
43042;SDS011;28667;50.758;6.096;2023-04-24T07:50:53;2.95;;;2.35;;
43042;SDS011;28667;50.758;6.096;2023-04-24T07:53:19;3.03;;;2.38;;
43042;SDS011;28667;50.758;6.096;2023-04-24T07:55:45;3.90;;;2.42;;
43042;SDS011;28667;50.758;6.096;2023-04-24T07:58:11;3.53;;;2.40;;
43042;SDS011;28667;50.758;6.096;2023-04-24T08:00:37;3.45;;;2.65;;
43042;SDS011;28667;50.758;6.096;2023-04-24T08:03:02;2.90;;;2.10;;
43042;SDS011;28667;50.758;6.096;2023-04-24T08:16:56;5.68;;;2.80;;
43042;SDS011;28667;50.758;6.096;2023-04-24T08:19:33;6.07;;;2.90;;
43042;SDS011;28667;50.758;6.096;2023-04-24T08:22:05;4.40;;;2.83;;
43042;SDS011;28667;50.758;6.096;2023-04-24T08:24:43;3.60;;;2.10;;
43042;SDS011;28667;50.758;6.096;2023-04-24T08:27:09;2.88;;;2.20;;
43042;SDS011;28667;50.758;6.096;2023-04-24T08:29:35;3.13;;;2.15;;
43042;SDS011;28667;50.758;6.096;2023-04-24T08:32:02;3.85;;;2.80;;
43042;SDS011;28667;50.758;6.096;2023-04-24T08:34:27;2.35;;;1.98;;
43042;SDS011;28667;50.758;6.096;2023-04-24T08:36:53;4.88;;;2.17;;
43042;SDS011;28667;50.758;6.096;2023-04-24T08:39:19;2.53;;;1.92;;
43042;SDS011;28667;50.758;6.096;2023-04-24T08:41:45;5.38;;;2.33;;
43042;SDS011;28667;50.758;6.096;2023-04-24T08:44:13;2.42;;;2.00;;
43042;SDS011;28667;50.758;6.096;2023-04-24T08:46:42;6.13;;;2.88;;
43042;SDS011;28667;50.758;6.096;2023-04-24T08:49:09;2.67;;;1.73;;
43042;SDS011;28667;50.758;6.096;2023-04-24T08:51:36;3.58;;;2.15;;
43042;SDS011;28667;50.758;6.096;2023-04-24T08:54:02;3.67;;;2.33;;
43042;SDS011;28667;50.758;6.096;2023-04-24T08:56:29;3.45;;;2.88;;
43042;SDS011;28667;50.758;6.096;2023-04-24T08:58:58;6.63;;;4.18;;
43042;SDS011;28667;50.758;6.096;2023-04-24T09:01:24;6.28;;;3.47;;
43042;SDS011;28667;50.758;6.096;2023-04-24T09:03:51;4.75;;;3.70;;
43042;SDS011;28667;50.758;6.096;2023-04-24T09:06:19;5.85;;;3.97;;
43042;SDS011;28667;50.758;6.096;2023-04-24T09:08:47;4.93;;;3.08;;
43042;SDS011;28667;50.758;6.096;2023-04-24T09:11:16;4.80;;;3.05;;
43042;SDS011;28667;50.758;6.096;2023-04-24T09:13:42;6.88;;;3.30;;
43042;SDS011;28667;50.758;6.096;2023-04-24T09:16:08;9.05;;;3.70;;
43042;SDS011;28667;50.758;6.096;2023-04-24T09:18:34;7.22;;;3.53;;
43042;SDS011;28667;50.758;6.096;2023-04-24T09:21:04;10.30;;;4.78;;
43042;SDS011;28667;50.758;6.096;2023-04-24T09:23:33;6.07;;;3.55;;
43042;SDS011;28667;50.758;6.096;2023-04-24T09:25:59;10.85;;;3.75;;
43042;SDS011;28667;50.758;6.096;2023-04-24T09:28:31;7.05;;;3.60;;
43042;SDS011;28667;50.758;6.096;2023-04-24T09:33:47;6.85;;;3.58;;
43042;SDS011;28667;50.758;6.096;2023-04-24T09:36:39;5.55;;;3.55;;
43042;SDS011;28667;50.758;6.096;2023-04-24T09:39:13;5.13;;;3.78;;
43042;SDS011;28667;50.758;6.096;2023-04-24T09:46:44;4.32;;;3.25;;
43042;SDS011;28667;50.758;6.096;2023-04-24T09:49:15;5.28;;;3.30;;
43042;SDS011;28667;50.758;6.096;2023-04-24T09:51:42;6.68;;;3.03;;
43042;SDS011;28667;50.758;6.096;2023-04-24T09:54:14;4.53;;;2.97;;
43042;SDS011;28667;50.758;6.096;2023-04-24T09:56:44;7.30;;;3.65;;
43042;SDS011;28667;50.758;6.096;2023-04-24T09:59:12;3.95;;;2.80;;
43042;SDS011;28667;50.758;6.096;2023-04-24T10:01:38;5.40;;;2.97;;
43042;SDS011;28667;50.758;6.096;2023-04-24T10:04:14;4.13;;;2.35;;
43042;SDS011;28667;50.758;6.096;2023-04-24T10:06:44;4.82;;;2.47;;
43042;SDS011;28667;50.758;6.096;2023-04-24T10:09:11;3.33;;;2.88;;
43042;SDS011;28667;50.758;6.096;2023-04-24T10:11:42;4.93;;;2.65;;
43042;SDS011;28667;50.758;6.096;2023-04-24T10:14:13;2.90;;;2.35;;
43042;SDS011;28667;50.758;6.096;2023-04-24T10:16:47;7.88;;;2.45;;
43042;SDS011;28667;50.758;6.096;2023-04-24T10:19:14;8.15;;;3.03;;
43042;SDS011;28667;50.758;6.096;2023-04-24T10:21:42;7.13;;;2.60;;
43042;SDS011;28667;50.758;6.096;2023-04-24T10:24:12;6.22;;;2.95;;
43042;SDS011;28667;50.758;6.096;2023-04-24T10:26:42;6.43;;;2.60;;
43042;SDS011;28667;50.758;6.096;2023-04-24T10:29:10;11.13;;;3.10;;
43042;SDS011;28667;50.758;6.096;2023-04-24T10:31:37;4.78;;;2.40;;
43042;SDS011;28667;50.758;6.096;2023-04-24T10:34:07;5.47;;;2.70;;
43042;SDS011;28667;50.758;6.096;2023-04-24T10:36:34;5.88;;;2.70;;
43042;SDS011;28667;50.758;6.096;2023-04-24T10:39:03;8.23;;;3.22;;
43042;SDS011;28667;50.758;6.096;2023-04-24T10:41:32;11.25;;;3.33;;
43042;SDS011;28667;50.758;6.096;2023-04-24T10:44:05;5.70;;;3.28;;
43042;SDS011;28667;50.758;6.096;2023-04-24T10:46:37;6.00;;;3.00;;
43042;SDS011;28667;50.758;6.096;2023-04-24T10:49:05;6.80;;;2.88;;
43042;SDS011;28667;50.758;6.096;2023-04-24T10:56:50;7.40;;;3.33;;
43042;SDS011;28667;50.758;6.096;2023-04-24T10:59:27;10.38;;;3.42;;
43042;SDS011;28667;50.758;6.096;2023-04-24T11:01:59;7.20;;;3.53;;
43042;SDS011;28667;50.758;6.096;2023-04-24T11:04:32;10.82;;;3.88;;
43042;SDS011;28667;50.758;6.096;2023-04-24T11:06:58;12.40;;;5.05;;
43042;SDS011;28667;50.758;6.096;2023-04-24T11:09:28;8.70;;;3.78;;
43042;SDS011;28667;50.758;6.096;2023-04-24T11:15:15;5.95;;;3.50;;
43042;SDS011;28667;50.758;6.096;2023-04-24T11:22:36;8.68;;;3.50;;
43042;SDS011;28667;50.758;6.096;2023-04-24T11:25:05;9.48;;;3.10;;
43042;SDS011;28667;50.758;6.096;2023-04-24T11:27:34;5.30;;;3.38;;
43042;SDS011;28667;50.758;6.096;2023-04-24T11:30:07;8.05;;;2.63;;
43042;SDS011;28667;50.758;6.096;2023-04-24T11:37:39;7.53;;;3.55;;
43042;SDS011;28667;50.758;6.096;2023-04-24T11:40:08;4.72;;;2.85;;
43042;SDS011;28667;50.758;6.096;2023-04-24T11:42:35;8.32;;;2.92;;
43042;SDS011;28667;50.758;6.096;2023-04-24T11:45:09;4.32;;;2.67;;
43042;SDS011;28667;50.758;6.096;2023-04-24T11:47:46;3.30;;;2.53;;
43042;SDS011;28667;50.758;6.096;2023-04-24T11:50:13;3.17;;;2.25;;
43042;SDS011;28667;50.758;6.096;2023-04-24T11:52:41;8.60;;;2.50;;
43042;SDS011;28667;50.758;6.096;2023-04-24T11:57:44;6.03;;;2.67;;
43042;SDS011;28667;50.758;6.096;2023-04-24T12:00:17;4.38;;;2.50;;
43042;SDS011;28667;50.758;6.096;2023-04-24T12:02:48;4.22;;;2.33;;
43042;SDS011;28667;50.758;6.096;2023-04-24T12:07:50;4.20;;;1.98;;
43042;SDS011;28667;50.758;6.096;2023-04-24T12:10:24;8.38;;;2.50;;
43042;SDS011;28667;50.758;6.096;2023-04-24T12:12:51;7.90;;;2.92;;
43042;SDS011;28667;50.758;6.096;2023-04-24T12:15:21;4.35;;;2.30;;
43042;SDS011;28667;50.758;6.096;2023-04-24T12:17:47;3.45;;;2.42;;
43042;SDS011;28667;50.758;6.096;2023-04-24T12:20:15;6.50;;;2.60;;
43042;SDS011;28667;50.758;6.096;2023-04-24T12:25:11;4.45;;;2.60;;
43042;SDS011;28667;50.758;6.096;2023-04-24T12:27:38;1.98;;;1.77;;
43042;SDS011;28667;50.758;6.096;2023-04-24T12:30:04;5.85;;;2.70;;
43042;SDS011;28667;50.758;6.096;2023-04-24T12:32:31;4.72;;;2.22;;
43042;SDS011;28667;50.758;6.096;2023-04-24T12:34:57;4.80;;;3.20;;
43042;SDS011;28667;50.758;6.096;2023-04-24T12:37:24;5.72;;;2.35;;
43042;SDS011;28667;50.758;6.096;2023-04-24T12:40:09;6.40;;;2.53;;
43042;SDS011;28667;50.758;6.096;2023-04-24T12:45:15;3.58;;;2.17;;
43042;SDS011;28667;50.758;6.096;2023-04-24T12:47:42;4.43;;;2.00;;
43042;SDS011;28667;50.758;6.096;2023-04-24T12:50:09;7.22;;;2.97;;
43042;SDS011;28667;50.758;6.096;2023-04-24T12:52:36;2.97;;;2.00;;
43042;SDS011;28667;50.758;6.096;2023-04-24T12:55:02;3.58;;;2.47;;
43042;SDS011;28667;50.758;6.096;2023-04-24T12:57:30;10.15;;;2.63;;
43042;SDS011;28667;50.758;6.096;2023-04-24T12:59:56;4.57;;;1.88;;
43042;SDS011;28667;50.758;6.096;2023-04-24T13:02:23;5.28;;;2.47;;
43042;SDS011;28667;50.758;6.096;2023-04-24T13:04:51;4.90;;;2.80;;
43042;SDS011;28667;50.758;6.096;2023-04-24T13:07:17;5.15;;;2.22;;
43042;SDS011;28667;50.758;6.096;2023-04-24T13:09:43;3.40;;;2.20;;
43042;SDS011;28667;50.758;6.096;2023-04-24T13:12:10;6.40;;;2.30;;
43042;SDS011;28667;50.758;6.096;2023-04-24T13:14:36;4.35;;;2.50;;
43042;SDS011;28667;50.758;6.096;2023-04-24T13:17:03;3.30;;;1.90;;
43042;SDS011;28667;50.758;6.096;2023-04-24T13:19:29;3.72;;;2.13;;
43042;SDS011;28667;50.758;6.096;2023-04-24T13:22:00;3.22;;;2.47;;
43042;SDS011;28667;50.758;6.096;2023-04-24T13:24:26;8.27;;;2.65;;
43042;SDS011;28667;50.758;6.096;2023-04-24T13:26:52;3.80;;;2.33;;
43042;SDS011;28667;50.758;6.096;2023-04-24T13:29:18;4.75;;;2.28;;
43042;SDS011;28667;50.758;6.096;2023-04-24T13:31:45;4.82;;;3.00;;
43042;SDS011;28667;50.758;6.096;2023-04-24T13:34:12;5.30;;;2.20;;
43042;SDS011;28667;50.758;6.096;2023-04-24T13:36:38;2.38;;;1.65;;
43042;SDS011;28667;50.758;6.096;2023-04-24T13:39:04;5.05;;;2.30;;
43042;SDS011;28667;50.758;6.096;2023-04-24T13:41:34;4.07;;;2.22;;
43042;SDS011;28667;50.758;6.096;2023-04-24T13:44:01;6.63;;;2.50;;
43042;SDS011;28667;50.758;6.096;2023-04-24T13:46:28;3.85;;;2.67;;
43042;SDS011;28667;50.758;6.096;2023-04-24T13:48:54;3.38;;;2.30;;
43042;SDS011;28667;50.758;6.096;2023-04-24T13:51:20;8.02;;;2.47;;
43042;SDS011;28667;50.758;6.096;2023-04-24T13:53:45;5.13;;;3.20;;
43042;SDS011;28667;50.758;6.096;2023-04-24T13:56:11;3.70;;;2.38;;
43042;SDS011;28667;50.758;6.096;2023-04-24T13:58:38;5.47;;;2.42;;
43042;SDS011;28667;50.758;6.096;2023-04-24T14:01:04;6.43;;;2.30;;
43042;SDS011;28667;50.758;6.096;2023-04-24T14:03:30;5.13;;;2.33;;
43042;SDS011;28667;50.758;6.096;2023-04-24T14:05:56;4.10;;;2.50;;
43042;SDS011;28667;50.758;6.096;2023-04-24T14:08:22;5.00;;;2.40;;
43042;SDS011;28667;50.758;6.096;2023-04-24T14:10:49;4.93;;;2.58;;
43042;SDS011;28667;50.758;6.096;2023-04-24T14:13:15;9.95;;;2.72;;
43042;SDS011;28667;50.758;6.096;2023-04-24T14:15:41;8.93;;;2.50;;
43042;SDS011;28667;50.758;6.096;2023-04-24T14:18:07;3.97;;;2.85;;
43042;SDS011;28667;50.758;6.096;2023-04-24T14:20:33;3.78;;;2.22;;
43042;SDS011;28667;50.758;6.096;2023-04-24T14:22:59;2.65;;;2.30;;
43042;SDS011;28667;50.758;6.096;2023-04-24T14:25:25;3.95;;;2.65;;
43042;SDS011;28667;50.758;6.096;2023-04-24T14:27:51;4.55;;;3.08;;
43042;SDS011;28667;50.758;6.096;2023-04-24T14:30:17;4.38;;;2.65;;
43042;SDS011;28667;50.758;6.096;2023-04-24T14:32:43;2.65;;;2.25;;
43042;SDS011;28667;50.758;6.096;2023-04-24T14:35:09;2.85;;;2.10;;
43042;SDS011;28667;50.758;6.096;2023-04-24T14:37:35;4.18;;;2.15;;
43042;SDS011;28667;50.758;6.096;2023-04-24T14:40:01;4.70;;;2.30;;
43042;SDS011;28667;50.758;6.096;2023-04-24T14:42:29;6.30;;;2.33;;
43042;SDS011;28667;50.758;6.096;2023-04-24T14:44:55;4.03;;;2.38;;
43042;SDS011;28667;50.758;6.096;2023-04-24T14:47:20;5.10;;;2.38;;
43042;SDS011;28667;50.758;6.096;2023-04-24T14:49:47;2.45;;;2.00;;
43042;SDS011;28667;50.758;6.096;2023-04-24T14:52:13;4.35;;;1.63;;
43042;SDS011;28667;50.758;6.096;2023-04-24T14:54:39;3.67;;;2.15;;
43042;SDS011;28667;50.758;6.096;2023-04-24T14:57:05;2.50;;;1.95;;
43042;SDS011;28667;50.758;6.096;2023-04-24T14:59:31;4.00;;;2.25;;
43042;SDS011;28667;50.758;6.096;2023-04-24T15:01:57;4.90;;;2.28;;
43042;SDS011;28667;50.758;6.096;2023-04-24T15:04:26;2.33;;;1.65;;
43042;SDS011;28667;50.758;6.096;2023-04-24T15:06:53;2.97;;;2.10;;
43042;SDS011;28667;50.758;6.096;2023-04-24T15:09:20;5.07;;;2.60;;
43042;SDS011;28667;50.758;6.096;2023-04-24T15:11:47;3.42;;;2.40;;
43042;SDS011;28667;50.758;6.096;2023-04-24T15:14:14;3.58;;;2.05;;
43042;SDS011;28667;50.758;6.096;2023-04-24T15:16:40;7.30;;;2.50;;
43042;SDS011;28667;50.758;6.096;2023-04-24T15:19:06;2.97;;;2.03;;
43042;SDS011;28667;50.758;6.096;2023-04-24T15:21:33;2.72;;;1.92;;
43042;SDS011;28667;50.758;6.096;2023-04-24T15:23:59;4.35;;;2.60;;
43042;SDS011;28667;50.758;6.096;2023-04-24T15:26:24;4.78;;;2.35;;
43042;SDS011;28667;50.758;6.096;2023-04-24T15:28:51;3.17;;;1.98;;
43042;SDS011;28667;50.758;6.096;2023-04-24T15:31:17;4.53;;;2.40;;
43042;SDS011;28667;50.758;6.096;2023-04-24T15:33:43;3.33;;;2.35;;
43042;SDS011;28667;50.758;6.096;2023-04-24T15:36:10;4.15;;;1.92;;
43042;SDS011;28667;50.758;6.096;2023-04-24T15:38:36;7.10;;;2.22;;